createdAt,value
2023-02-18T00:00:18.481Z,86.18
2023-02-18T00:02:46.579Z,86.19
2023-02-18T00:05:14.961Z,86.18
2023-02-18T00:07:43.211Z,86.20
2023-02-18T00:10:13.170Z,86.31
2023-02-18T00:12:42.152Z,86.46
2023-02-18T00:15:14.083Z,86.43
2023-02-18T00:17:43.136Z,86.45
2023-02-18T00:20:12.202Z,86.38
2023-02-18T00:22:42.244Z,86.57
2023-02-18T00:25:10.802Z,86.75
2023-02-18T00:27:39.044Z,86.55
2023-02-18T00:30:08.438Z,86.58
2023-02-18T00:32:37.687Z,86.63
2023-02-18T00:35:06.629Z,86.69
2023-02-18T00:37:36.693Z,86.87
2023-02-18T00:40:06.072Z,86.77
2023-02-18T00:42:34.715Z,86.79
2023-02-18T00:45:03.675Z,86.92
2023-02-18T00:47:32.541Z,87.04
2023-02-18T00:50:01.869Z,86.99
2023-02-18T00:52:30.249Z,87.12
2023-02-18T00:54:58.532Z,87.18
2023-02-18T00:57:29.769Z,87.30
2023-02-18T00:59:57.979Z,87.14
2023-02-18T01:02:26.534Z,87.26
2023-02-18T01:04:55.453Z,87.30
2023-02-18T01:07:23.754Z,87.27
2023-02-18T01:09:54.129Z,87.39
2023-02-18T01:12:22.714Z,87.50
2023-02-18T01:14:50.710Z,87.60
2023-02-18T01:17:19.967Z,87.52
2023-02-18T01:19:48.166Z,87.56
2023-02-18T01:22:18.075Z,87.70
2023-02-18T01:24:46.564Z,88.03
2023-02-18T01:27:15.044Z,88.07
2023-02-18T01:29:44.040Z,88.15
2023-02-18T01:32:12.480Z,88.44
2023-02-18T01:34:43.453Z,88.49
2023-02-18T01:37:11.635Z,88.52
2023-02-18T01:39:40.741Z,88.62
2023-02-18T01:42:26.692Z,88.61
2023-02-18T01:45:35.245Z,88.72
2023-02-18T01:48:18.970Z,88.53
2023-02-18T01:50:57.095Z,88.60
2023-02-18T01:53:48.720Z,88.61
2023-02-18T01:56:24.195Z,88.58
2023-02-18T01:58:52.993Z,88.54
2023-02-18T02:01:21.155Z,88.42
2023-02-18T02:03:49.400Z,88.49
2023-02-18T02:06:19.884Z,88.54
2023-02-18T02:08:53.968Z,88.60
2023-02-18T02:11:25.277Z,88.57
2023-02-18T02:13:56.935Z,88.67
2023-02-18T02:16:40.810Z,88.54
2023-02-18T02:19:15.445Z,88.41
2023-02-18T02:21:55.764Z,88.58
2023-02-18T02:24:50.663Z,88.60
2023-02-18T02:27:25.491Z,88.57
2023-02-18T02:30:17.377Z,88.48
2023-02-18T02:33:01.064Z,88.70
2023-02-18T02:35:59.752Z,88.64
2023-02-18T02:38:35.627Z,88.86
2023-02-18T02:41:20.500Z,88.70
2023-02-18T02:43:54.010Z,88.81
2023-02-18T02:46:30.134Z,88.83
2023-02-18T02:49:00.723Z,88.79
2023-02-18T02:51:32.710Z,89.01
2023-02-18T02:54:30.738Z,88.79
2023-02-18T02:57:17.562Z,88.86
2023-02-18T02:59:59.621Z,89.05
2023-02-18T03:02:53.466Z,89.06
2023-02-18T03:06:01.508Z,89.13
2023-02-18T03:08:45.464Z,89.25
2023-02-18T03:11:14.856Z,89.37
2023-02-18T03:13:59.216Z,89.35
2023-02-18T03:16:35.447Z,89.29
2023-02-18T03:19:20.955Z,89.39
2023-02-18T03:21:57.133Z,89.36
2023-02-18T03:24:28.218Z,89.39
2023-02-18T03:26:57.430Z,89.40
2023-02-18T03:29:25.911Z,89.37
2023-02-18T03:32:02.418Z,89.47
2023-02-18T03:34:32.937Z,89.56
2023-02-18T03:37:05.729Z,89.55
2023-02-18T03:39:34.612Z,89.53
2023-02-18T03:42:03.511Z,89.66
2023-02-18T03:44:32.550Z,89.63
2023-02-18T03:47:00.636Z,89.52
2023-02-18T03:49:29.716Z,89.69
2023-02-18T03:51:58.192Z,89.50
2023-02-18T03:54:26.434Z,89.62
2023-02-18T03:56:56.042Z,89.61
2023-02-18T03:59:24.623Z,89.55
2023-02-18T04:01:53.203Z,89.62
2023-02-18T04:04:21.566Z,89.66
2023-02-18T04:06:49.859Z,89.56
2023-02-18T04:09:18.094Z,89.61
2023-02-18T04:11:46.930Z,89.69
2023-02-18T04:14:15.928Z,89.64
2023-02-18T04:16:44.147Z,89.59
2023-02-18T04:19:12.369Z,89.68
2023-02-18T04:21:40.652Z,89.67
2023-02-18T04:24:08.928Z,89.56
2023-02-18T04:26:37.270Z,89.54
2023-02-18T04:29:05.586Z,89.68
2023-02-18T04:31:33.825Z,89.71
2023-02-18T04:34:02.221Z,89.62
2023-02-18T04:36:30.922Z,89.79
2023-02-18T04:38:59.906Z,89.74
2023-02-18T04:41:28.249Z,89.69
2023-02-18T04:44:00.977Z,89.73
2023-02-18T04:46:30.515Z,89.80
2023-02-18T04:49:01.335Z,89.81
2023-02-18T04:51:30.005Z,89.88
2023-02-18T04:54:00.846Z,89.80
2023-02-18T04:56:29.329Z,90.04
2023-02-18T04:58:57.603Z,89.96
2023-02-18T05:01:26.154Z,90.02
2023-02-18T05:03:54.511Z,90.02
2023-02-18T05:06:22.680Z,89.96
2023-02-18T05:08:50.815Z,90.02
2023-02-18T05:11:18.975Z,90.01
2023-02-18T05:13:47.544Z,90.12
2023-02-18T05:16:16.937Z,90.08
2023-02-18T05:18:47.814Z,89.91
2023-02-18T05:21:16.205Z,89.96
2023-02-18T05:23:44.989Z,90.16
2023-02-18T05:26:13.283Z,90.05
2023-02-18T05:28:45.124Z,90.02
2023-02-18T05:31:13.241Z,90.01
2023-02-18T05:33:41.624Z,90.08
2023-02-18T05:36:10.743Z,90.18
2023-02-18T05:38:39.081Z,90.33
2023-02-18T05:41:07.326Z,90.00
2023-02-18T05:43:58.540Z,90.12
2023-02-18T05:46:26.847Z,90.06
2023-02-18T05:48:54.896Z,90.15
2023-02-18T05:51:23.165Z,90.22
2023-02-18T05:53:51.546Z,90.23
2023-02-18T05:56:19.728Z,90.17
2023-02-18T05:58:47.993Z,90.18
2023-02-18T06:01:16.747Z,90.11
2023-02-18T06:03:44.961Z,90.22
2023-02-18T06:06:19.790Z,90.19
2023-02-18T06:08:48.438Z,90.17
2023-02-18T06:11:16.500Z,90.09
2023-02-18T06:13:44.780Z,90.01
2023-02-18T06:16:13.198Z,90.03
2023-02-18T06:18:42.014Z,90.05
2023-02-18T06:21:10.376Z,89.99
2023-02-18T06:23:38.556Z,90.04
2023-02-18T06:26:08.152Z,90.10
2023-02-18T06:28:38.398Z,89.95
2023-02-18T06:31:06.653Z,90.06
2023-02-18T06:33:34.868Z,90.18
2023-02-18T06:36:08.131Z,89.99
2023-02-18T06:38:37.632Z,90.08
2023-02-18T06:41:05.854Z,90.24
2023-02-18T06:43:34.286Z,90.14
2023-02-18T06:46:03.863Z,90.09
2023-02-18T06:48:32.014Z,89.96
2023-02-18T06:51:00.125Z,90.03
2023-02-18T06:53:28.259Z,89.90
2023-02-18T06:55:56.483Z,90.11
2023-02-18T06:58:25.897Z,89.97
2023-02-18T07:00:55.558Z,89.87
2023-02-18T07:03:25.559Z,90.06
2023-02-18T07:05:53.728Z,90.24
2023-02-18T07:08:22.798Z,90.13
2023-02-18T07:10:51.166Z,90.24
2023-02-18T07:13:19.363Z,90.29
2023-02-18T07:15:47.832Z,90.26
2023-02-18T07:26:09.374Z,90.41
2023-02-18T07:28:38.296Z,90.39
2023-02-18T07:31:07.073Z,90.51
2023-02-18T07:33:35.247Z,90.46
2023-02-18T07:36:04.590Z,90.50
2023-02-18T07:38:32.837Z,90.53
2023-02-18T07:41:02.139Z,90.41
2023-02-18T07:43:30.317Z,90.63
2023-02-18T07:45:58.742Z,90.51
2023-02-18T07:48:26.965Z,90.52
2023-02-18T07:50:55.142Z,90.45
2023-02-18T07:53:25.541Z,90.64
2023-02-18T07:55:53.753Z,90.55
2023-02-18T07:58:27.753Z,90.65
2023-02-18T08:00:56.712Z,90.73
2023-02-18T08:03:30.551Z,90.66
2023-02-18T08:06:00.917Z,90.84
2023-02-18T08:08:30.678Z,90.89
2023-02-18T08:11:13.334Z,90.89
2023-02-18T08:13:48.108Z,91.06
2023-02-18T08:16:19.875Z,91.05
2023-02-18T08:18:49.830Z,91.02
2023-02-18T08:21:18.966Z,91.08
2023-02-18T08:23:47.703Z,91.05
2023-02-18T08:26:15.880Z,91.18
2023-02-18T08:28:45.293Z,91.16
2023-02-18T08:31:18.132Z,91.12
2023-02-18T08:33:47.516Z,91.11
2023-02-18T08:36:15.964Z,91.23
2023-02-18T08:38:44.327Z,91.13
2023-02-18T08:41:14.700Z,91.08
2023-02-18T08:43:43.204Z,91.04
2023-02-18T08:46:16.084Z,91.11
2023-02-18T08:48:53.617Z,91.21
2023-02-18T08:51:22.716Z,91.28
2023-02-18T08:53:51.191Z,91.38
2023-02-18T08:56:20.933Z,91.28
2023-02-18T08:58:50.005Z,91.26
2023-02-18T09:01:18.901Z,91.25
2023-02-18T09:03:48.633Z,91.34
2023-02-18T09:06:17.495Z,91.16
2023-02-18T09:08:45.929Z,91.11
2023-02-18T09:11:16.195Z,91.10
2023-02-18T09:13:46.213Z,91.07
2023-02-18T09:16:18.717Z,91.26
2023-02-18T09:18:48.301Z,91.19
2023-02-18T09:21:16.990Z,91.15
2023-02-18T09:23:46.806Z,91.14
2023-02-18T09:26:16.191Z,91.20
2023-02-18T09:28:44.481Z,90.94
2023-02-18T09:31:16.850Z,91.12
2023-02-18T09:33:47.067Z,91.21
2023-02-18T09:36:15.406Z,91.08
2023-02-18T09:38:43.624Z,91.17
2023-02-18T09:41:21.935Z,91.25
2023-02-18T09:43:49.999Z,90.92
2023-02-18T09:46:26.595Z,91.01
2023-02-18T09:48:54.657Z,90.83
2023-02-18T09:51:22.637Z,90.91
2023-02-18T09:53:50.551Z,90.61
2023-02-18T09:56:39.083Z,90.91
2023-02-18T09:59:11.770Z,90.85
2023-02-18T10:01:40.639Z,90.60
2023-02-18T10:04:40.979Z,90.60
2023-02-18T10:07:16.151Z,90.60
2023-02-18T10:09:44.148Z,90.54
2023-02-18T10:12:18.610Z,90.42
2023-02-18T10:14:57.166Z,90.37
2023-02-18T10:17:31.059Z,90.24
2023-02-18T10:19:59.760Z,90.29
2023-02-18T10:22:27.752Z,89.89
2023-02-18T10:25:00.243Z,89.87
2023-02-18T10:27:33.231Z,89.94
2023-02-18T10:30:13.490Z,89.93
2023-02-18T10:32:44.013Z,89.77
2023-02-18T10:35:41.658Z,89.86
2023-02-18T10:38:20.911Z,89.67
2023-02-18T10:41:30.535Z,89.58
2023-02-18T10:44:25.249Z,89.67
2023-02-18T10:47:06.313Z,89.54
2023-02-18T10:50:09.329Z,89.65
2023-02-18T10:52:43.208Z,89.61
2023-02-18T10:55:13.943Z,89.56
2023-02-18T10:57:49.103Z,89.50
2023-02-18T11:00:24.165Z,89.40
2023-02-18T11:03:14.861Z,89.47
2023-02-18T11:05:44.027Z,89.53
2023-02-18T11:08:25.266Z,89.37
2023-02-18T11:10:53.743Z,89.40
2023-02-18T11:13:29.057Z,89.46
2023-02-18T11:16:06.680Z,89.35
2023-02-18T11:18:40.496Z,89.40
2023-02-18T11:21:31.712Z,89.59
2023-02-18T11:24:08.336Z,89.40
2023-02-18T11:26:38.407Z,89.40
2023-02-18T11:29:09.586Z,89.42
2023-02-18T11:31:48.765Z,89.38
2023-02-18T11:34:19.257Z,89.40
2023-02-18T11:36:47.789Z,89.57
2023-02-18T11:39:28.639Z,89.41
2023-02-18T11:42:03.638Z,89.27
2023-02-18T11:44:32.794Z,89.27
2023-02-18T11:47:03.164Z,89.24
2023-02-18T11:49:32.342Z,89.25
2023-02-18T11:52:19.765Z,89.05
2023-02-18T11:55:06.787Z,88.99
2023-02-18T11:57:36.741Z,88.97
2023-02-18T12:00:10.599Z,88.90
2023-02-18T12:02:40.092Z,88.82
2023-02-18T12:05:14.503Z,88.73
2023-02-18T12:07:50.923Z,88.69
2023-02-18T12:10:27.993Z,88.71
2023-02-18T12:13:02.919Z,88.65
2023-02-18T12:15:44.557Z,88.70
2023-02-18T12:18:18.257Z,88.59
2023-02-18T12:21:12.788Z,88.53
2023-02-18T12:24:14.720Z,88.62
2023-02-18T12:27:14.779Z,88.56
2023-02-18T12:30:05.701Z,88.50
2023-02-18T12:32:49.724Z,88.44
2023-02-18T12:35:48.971Z,88.26
2023-02-18T12:38:35.753Z,87.96
2023-02-18T12:41:19.553Z,87.98
2023-02-18T12:44:18.678Z,88.02
2023-02-18T12:47:08.519Z,88.06
2023-02-18T12:49:58.621Z,87.91
2023-02-18T12:52:51.701Z,87.80
2023-02-18T12:55:22.948Z,87.72
2023-02-18T12:58:30.163Z,87.59
2023-02-18T13:01:23.221Z,87.61
2023-02-18T13:04:04.797Z,87.72
2023-02-18T13:06:49.591Z,87.49
2023-02-18T13:09:36.470Z,87.59
2023-02-18T13:12:23.067Z,87.48
2023-02-18T13:15:01.953Z,87.58
2023-02-18T13:17:33.146Z,87.67
2023-02-18T13:20:05.156Z,87.56
2023-02-18T13:22:33.511Z,87.52
2023-02-18T13:25:01.492Z,87.46
2023-02-18T13:27:44.045Z,87.43
2023-02-18T13:30:45.378Z,87.49
2023-02-18T13:33:27.756Z,87.55
2023-02-18T13:36:08.287Z,87.41
2023-02-18T13:38:45.331Z,87.58
2023-02-18T13:41:13.358Z,87.39
2023-02-18T13:43:41.287Z,87.58
2023-02-18T13:46:18.322Z,87.31
2023-02-18T13:48:52.512Z,87.28
2023-02-18T13:51:29.798Z,87.41
2023-02-18T13:54:20.873Z,87.17
2023-02-18T13:56:55.743Z,87.38
2023-02-18T13:59:35.657Z,87.37
2023-02-18T14:02:22.809Z,87.23
2023-02-18T14:04:54.040Z,87.20
2023-02-18T14:07:25.170Z,87.34
2023-02-18T14:09:55.007Z,87.42
2023-02-18T14:13:03.682Z,87.33
2023-02-18T14:15:32.682Z,87.39
2023-02-18T14:18:13.276Z,87.34
2023-02-18T14:20:41.757Z,87.41
2023-02-18T14:23:18.978Z,87.53
2023-02-18T14:26:05.439Z,87.44
2023-02-18T14:28:33.679Z,87.58
2023-02-18T14:31:12.056Z,87.60
2023-02-18T14:33:42.241Z,87.81
2023-02-18T14:36:14.844Z,87.74
2023-02-18T14:38:50.766Z,87.63
2023-02-18T14:41:35.121Z,87.84
2023-02-18T14:44:21.650Z,87.72
2023-02-18T14:47:20.996Z,87.96
2023-02-18T14:49:58.022Z,87.84
2023-02-18T14:52:38.038Z,87.97
2023-02-18T14:55:07.582Z,87.91
2023-02-18T14:57:45.585Z,87.87
2023-02-18T15:00:24.930Z,87.90
2023-02-18T15:02:54.208Z,88.01
2023-02-18T15:05:32.601Z,87.89
2023-02-18T15:08:03.641Z,87.82
2023-02-18T15:10:43.072Z,88.02
2023-02-18T15:13:28.614Z,87.79
2023-02-18T15:15:58.872Z,87.79
2023-02-18T15:18:34.508Z,87.87
2023-02-18T15:21:06.013Z,87.69
2023-02-18T15:23:38.439Z,87.76
2023-02-18T15:26:07.676Z,87.60
2023-02-18T15:28:42.174Z,87.55
2023-02-18T15:31:13.949Z,87.56
2023-02-18T15:33:44.237Z,87.56
2023-02-18T15:36:14.291Z,87.56
2023-02-18T15:38:44.391Z,87.47
2023-02-18T15:41:14.555Z,87.59
2023-02-18T15:43:57.940Z,87.70
2023-02-18T15:46:26.490Z,87.52
2023-02-18T15:48:55.067Z,87.50
2023-02-18T15:51:27.693Z,87.49
2023-02-18T15:54:00.041Z,87.42
2023-02-18T15:56:39.729Z,87.38
2023-02-18T15:59:21.533Z,87.38
2023-02-18T16:01:51.441Z,87.33
2023-02-18T16:04:21.121Z,87.40
2023-02-18T16:06:52.924Z,87.32
2023-02-18T16:09:33.872Z,87.35
2023-02-18T16:12:13.169Z,87.38
2023-02-18T16:14:49.242Z,87.19
2023-02-18T16:17:25.535Z,87.21
2023-02-18T16:20:05.784Z,87.42
2023-02-18T16:22:37.391Z,87.43
2023-02-18T16:25:25.276Z,87.63
2023-02-18T16:28:17.924Z,87.32
2023-02-18T16:30:48.571Z,87.45
2023-02-18T16:33:20.376Z,87.43
2023-02-18T16:35:51.731Z,87.44
2023-02-18T16:38:26.156Z,87.50
2023-02-18T16:40:59.163Z,87.40
2023-02-18T16:43:32.853Z,87.53
2023-02-18T16:46:19.673Z,87.55
2023-02-18T16:48:56.180Z,87.45
2023-02-18T16:51:33.275Z,87.33
2023-02-18T16:54:03.924Z,87.29
2023-02-18T16:56:35.756Z,87.34
2023-02-18T16:59:06.993Z,87.24
2023-02-18T17:01:41.741Z,87.24
2023-02-18T17:04:15.954Z,87.13
2023-02-18T17:14:20.458Z,87.01
2023-02-18T17:16:49.827Z,86.89
2023-02-18T17:19:18.349Z,86.61
2023-02-18T17:21:48.994Z,86.54
2023-02-18T17:24:18.623Z,86.33
2023-02-18T17:26:47.098Z,86.20
2023-02-18T17:29:16.329Z,86.10
2023-02-18T17:31:47.141Z,85.82
2023-02-18T17:34:39.565Z,85.75
2023-02-18T17:37:12.522Z,85.51
2023-02-18T17:39:40.816Z,85.42
2023-02-18T17:42:11.561Z,85.09
2023-02-18T17:44:39.825Z,84.89
2023-02-18T17:47:08.916Z,84.55
2023-02-18T17:49:38.012Z,84.50
2023-02-18T17:52:06.407Z,84.41
2023-02-18T17:54:37.034Z,84.27
2023-02-18T17:57:05.129Z,84.13
2023-02-18T17:59:33.477Z,83.75
2023-02-18T18:02:01.859Z,83.60
2023-02-18T18:04:30.279Z,83.67
2023-02-18T18:06:58.617Z,83.51
2023-02-18T18:09:27.619Z,83.37
2023-02-18T18:11:56.193Z,83.23
2023-02-18T18:14:29.224Z,83.15
2023-02-18T18:16:57.678Z,83.24
2023-02-18T18:19:26.966Z,83.09
2023-02-18T18:21:56.299Z,82.95
2023-02-18T18:24:24.746Z,82.94
2023-02-18T18:26:54.042Z,82.79
2023-02-18T18:29:23.455Z,82.74
2023-02-18T18:31:53.371Z,82.66
2023-02-18T18:34:22.082Z,82.54
2023-02-18T18:36:50.227Z,82.40
2023-02-18T18:39:18.611Z,82.41
2023-02-18T18:41:46.787Z,82.27
2023-02-18T18:44:15.474Z,82.16
2023-02-18T18:46:46.981Z,82.06
2023-02-18T18:49:15.319Z,81.90
2023-02-18T18:51:43.863Z,81.70
2023-02-18T18:54:14.125Z,81.75
2023-02-18T18:56:42.385Z,81.80
2023-02-18T18:59:10.731Z,81.61
2023-02-18T19:01:39.190Z,81.41
2023-02-18T19:04:07.537Z,81.56
2023-02-18T19:06:36.332Z,81.41
2023-02-18T19:09:04.582Z,81.26
2023-02-18T19:11:35.798Z,81.32
2023-02-18T19:14:04.111Z,81.15
2023-02-18T19:16:35.463Z,81.21
2023-02-18T19:19:04.145Z,81.17
2023-02-18T19:21:33.959Z,81.05
2023-02-18T19:24:04.694Z,81.11
2023-02-18T19:26:34.917Z,80.92
2023-02-18T19:29:02.991Z,80.73
2023-02-18T19:31:31.504Z,80.72
2023-02-18T19:34:03.462Z,80.67
2023-02-18T19:36:31.900Z,80.48
2023-02-18T19:39:00.112Z,80.64
2023-02-18T19:41:28.677Z,80.53
2023-02-18T19:43:57.098Z,80.53
2023-02-18T19:46:25.416Z,80.26
2023-02-18T19:48:54.124Z,80.43
2023-02-18T19:51:23.430Z,80.29
2023-02-18T19:53:51.909Z,80.36
2023-02-18T19:56:21.513Z,80.32
2023-02-18T19:58:50.009Z,80.04
2023-02-18T20:01:18.416Z,79.98
2023-02-18T20:03:47.701Z,79.85
2023-02-18T20:06:22.425Z,79.76
2023-02-18T20:08:54.820Z,79.58
2023-02-18T20:11:33.211Z,79.61
2023-02-18T20:14:02.524Z,79.59
2023-02-18T20:16:30.977Z,79.46
2023-02-18T20:18:59.983Z,79.39
2023-02-18T20:21:28.354Z,79.41
2023-02-18T20:24:02.063Z,79.16
2023-02-18T20:26:30.334Z,79.08
2023-02-18T20:28:59.043Z,79.38
2023-02-18T20:31:27.723Z,79.12
2023-02-18T20:33:57.446Z,79.12
2023-02-18T20:36:26.125Z,79.23
2023-02-18T20:38:54.813Z,79.18
2023-02-18T20:41:23.601Z,79.15
2023-02-18T20:43:52.581Z,79.06
2023-02-18T20:46:21.956Z,79.04
2023-02-18T20:48:50.350Z,79.10
2023-02-18T20:51:20.461Z,79.02
2023-02-18T20:53:48.778Z,78.82
2023-02-18T20:56:21.023Z,78.91
2023-02-18T20:58:49.345Z,78.92
2023-02-18T21:01:22.174Z,78.83
2023-02-18T21:03:50.671Z,78.87
2023-02-18T21:06:21.608Z,78.75
2023-02-18T21:08:53.091Z,78.73
2023-02-18T21:11:25.750Z,78.66
2023-02-18T21:13:55.559Z,78.54
2023-02-18T21:16:24.361Z,78.60
2023-02-18T21:18:52.829Z,78.45
2023-02-18T21:21:23.490Z,78.59
2023-02-18T21:23:53.071Z,78.48
2023-02-18T21:26:25.448Z,78.45
2023-02-18T21:28:55.157Z,78.51
2023-02-18T21:31:32.641Z,78.54
2023-02-18T21:34:01.432Z,78.51
2023-02-18T21:36:31.341Z,78.44
2023-02-18T21:39:02.227Z,78.67
2023-02-18T21:41:35.064Z,78.55
2023-02-18T21:44:04.206Z,78.47
2023-02-18T21:46:35.354Z,78.59
2023-02-18T21:49:10.001Z,78.65
2023-02-18T21:51:57.561Z,78.59
2023-02-18T21:54:27.481Z,78.59
2023-02-18T21:56:56.050Z,78.84
2023-02-18T21:59:26.862Z,78.58
2023-02-18T22:01:55.583Z,78.91
2023-02-18T22:04:25.461Z,78.80
2023-02-18T22:06:53.879Z,78.66
2023-02-18T22:09:22.901Z,78.74
2023-02-18T22:11:51.051Z,78.77
2023-02-18T22:14:19.428Z,78.63
2023-02-18T22:16:47.845Z,78.80
2023-02-18T22:19:16.288Z,78.72
2023-02-18T22:21:44.999Z,78.76
2023-02-18T22:24:16.951Z,78.70
2023-02-18T22:26:46.911Z,78.58
2023-02-18T22:29:15.868Z,78.50
2023-02-18T22:31:43.953Z,78.57
2023-02-18T22:34:12.502Z,78.61
2023-02-18T22:36:41.093Z,78.48
2023-02-18T22:39:10.589Z,78.54
2023-02-18T22:41:39.509Z,78.48
2023-02-18T22:44:09.136Z,78.52
2023-02-18T22:46:37.466Z,78.54
2023-02-18T22:49:06.675Z,78.57
2023-02-18T22:51:37.914Z,78.60
2023-02-18T22:54:09.874Z,78.49
2023-02-18T22:56:37.944Z,78.72
2023-02-18T22:59:06.146Z,78.45
2023-02-18T23:01:36.588Z,78.35
2023-02-18T23:04:09.910Z,78.37
2023-02-18T23:06:38.818Z,78.28
2023-02-18T23:09:07.731Z,78.31
2023-02-18T23:11:36.361Z,78.32
2023-02-18T23:14:18.326Z,78.26
2023-02-18T23:17:13.107Z,78.03
2023-02-18T23:27:22.572Z,78.12
2023-02-18T23:29:51.192Z,77.89
2023-02-18T23:32:19.994Z,77.87
2023-02-18T23:34:50.414Z,77.96
2023-02-18T23:37:39.480Z,77.86
2023-02-18T23:40:09.291Z,77.88
2023-02-18T23:42:37.607Z,77.80
2023-02-18T23:45:06.046Z,77.88
2023-02-18T23:47:34.270Z,77.97
2023-02-18T23:50:02.420Z,77.85
2023-02-18T23:52:31.687Z,77.85
2023-02-18T23:55:00.386Z,77.88
2023-02-18T23:57:32.353Z,77.99
